Nome, Alaska
Current Conditions -  °F | °C
As of 3:53 AM on Thursday 30 Oct 2014 (Local Time) from PAOM Reporting Station
Clear Clear  
Wind Chill: 11°   Ceiling: Unl
Heat Index: 18°   Visibility: 10mi
Dew Point: 14°   Wind: 5mph
Humidity: 84%   Direction: 340°NNW
Pressure: 29.99"   Gusts: NA
Location:  64.5°N, 165.41°W
Report Text: PAOM 301153Z 34004KT 10SM CLR M08/M10 A2999 RMK SLP155 T10781100 11061 21106 52000 $ VIA AUTODIAL
Loading
Personal Weather Stations






























Interactive Weather Map New forecast layout! Learn more

10-Day Weather Forecast

Advertisements
Track Severe Weather on mobile